createdAt,value
2022-08-08T00:08:12.473Z,1430.09657
2022-08-08T00:23:14.700Z,1503.08518
2022-08-08T00:38:32.434Z,1518.41409
2022-08-08T00:53:56.989Z,1492.20542
2022-08-08T01:09:36.762Z,1345.38204
2022-08-08T01:24:43.587Z,1384.29803
2022-08-08T01:39:53.590Z,1413.50262
2022-08-08T01:55:26.356Z,1330.68571
2022-08-08T02:11:53.139Z,1266.54115
2022-08-08T02:27:02.245Z,1321.49952
2022-08-08T02:42:07.820Z,1316.30699
2022-08-08T02:57:17.156Z,1213.76862
2022-08-08T03:12:36.279Z,1145.29965
2022-08-08T03:28:03.167Z,1136.55691
2022-08-08T03:43:16.823Z,1143.34521
2022-08-08T03:58:35.646Z,1164.20554
2022-08-08T04:14:03.581Z,1129.84873
2022-08-08T04:29:36.830Z,1122.27856
2022-08-08T04:44:39.439Z,1140.42604
2022-08-08T04:59:42.613Z,1163.19495
2022-08-08T05:14:44.676Z,1158.16818
2022-08-08T05:29:52.326Z,1176.47109
2022-08-08T05:44:54.378Z,1197.49827
2022-08-08T06:00:22.727Z,1210.47928
2022-08-08T06:15:31.582Z,1207.20771
2022-08-08T06:30:53.372Z,1215.97147
2022-08-08T06:45:56.890Z,1233.88633
2022-08-08T07:00:58.819Z,1262.95998
2022-08-08T07:16:04.496Z,1112.95731
2022-08-08T07:31:12.010Z,709.03723
2022-08-08T07:46:23.310Z,638.6748
2022-08-08T08:01:27.221Z,775.01496
2022-08-08T08:17:44.158Z,875.81749
2022-08-08T08:32:51.898Z,974.54595
2022-08-08T08:47:54.730Z,1084.1429
2022-08-08T09:02:57.016Z,1163.19495
2022-08-08T09:17:59.020Z,1274.97672
2022-08-08T09:33:54.262Z,1353.53586
2022-08-08T09:49:43.003Z,1167.24789
2022-08-08T10:04:53.479Z,973.83771
2022-08-08T10:19:57.602Z,1200.71735
2022-08-08T10:35:01.111Z,1254.68216
2022-08-08T10:50:04.528Z,1364.56263
2022-08-08T11:05:14.894Z,1470.9116
2022-08-08T11:20:17.904Z,1575.54429
2022-08-08T11:35:27.662Z,1660.47137
2022-08-08T11:50:40.601Z,1712.46056
2022-08-08T12:05:42.527Z,1695.13016
2022-08-08T12:20:45.181Z,1731.26664
2022-08-08T12:35:52.847Z,1801.07576
2022-08-08T12:50:57.334Z,1726.80462
2022-08-08T13:06:03.393Z,1758.53068
2022-08-08T13:21:07.809Z,1770.14581
2022-08-08T13:36:10.176Z,1682.36082
2022-08-08T13:51:24.845Z,1652.28163
2022-08-08T14:06:36.257Z,1740.26024
2022-08-08T14:21:39.491Z,1799.86618
2022-08-08T14:36:51.588Z,1784.28811
2022-08-08T14:51:55.647Z,1753.9272
2022-08-08T15:06:57.553Z,1704.8351
2022-08-08T15:21:59.442Z,1667.70429
2022-08-08T15:37:02.368Z,1630.17081
2022-08-08T15:52:05.068Z,1598.09232
2022-08-08T16:07:07.598Z,1577.39896
2022-08-08T16:22:09.516Z,1560.86246
2022-08-08T16:37:32.582Z,1363.17447
2022-08-08T16:55:22.484Z,1375.77053
2022-08-08T17:10:58.187Z,1403.14187
2022-08-08T17:26:12.137Z,1430.09657
2022-08-08T17:41:15.432Z,1480.6635
2022-08-08T17:56:17.792Z,1469.29876
2022-08-08T18:11:19.606Z,1439.31308
2022-08-08T18:26:21.522Z,1425.53243
2022-08-08T18:41:51.762Z,1436.22774
2022-08-08T18:57:05.271Z,1433.15559
2022-08-08T19:12:13.367Z,1443.96603
2022-08-08T19:27:15.409Z,1459.6955
2022-08-08T19:42:17.490Z,1459.6955
2022-08-08T19:57:19.340Z,1442.41171
2022-08-08T20:12:35.020Z,1434.69002
2022-08-08T20:27:43.937Z,1430.09657
2022-08-08T20:42:54.159Z,1456.52225
2022-08-08T20:57:58.022Z,1397.28936
2022-08-08T21:12:59.995Z,1316.30699
2022-08-08T21:28:09.743Z,1321.49952
2022-08-08T21:43:17.899Z,1307.31758
2022-08-08T21:58:19.821Z,1264.15145
2022-08-08T22:13:26.746Z,1230.48719
2022-08-08T22:29:14.927Z,1365.95362
2022-08-08T22:45:03.569Z,1375.77053
2022-08-08T23:00:07.346Z,1388.60155
2022-08-08T23:16:36.839Z,1288.46205
2022-08-08T23:31:42.141Z,1194.29641
2022-08-08T23:49:07.546Z,1185.84121
